createdAt,value
2019-04-06T00:01:41.849Z,14.57
2019-04-06T00:04:10.986Z,12.10
2019-04-06T00:06:40.075Z,11.70
2019-04-06T00:09:09.246Z,13.33
2019-04-06T00:11:38.458Z,11.97
2019-04-06T00:14:07.526Z,11.03
2019-04-06T00:16:36.652Z,12.80
2019-04-06T00:19:05.967Z,9.17
2019-04-06T00:21:35.226Z,11.37
2019-04-06T00:24:04.498Z,13.87
2019-04-06T00:26:34.008Z,13.40
2019-04-06T00:29:03.058Z,10.30
2019-04-06T00:31:49.537Z,12.50
2019-04-06T00:34:18.647Z,14.50
2019-04-06T00:36:47.850Z,12.27
2019-04-06T00:39:16.863Z,12.27
2019-04-06T00:41:45.962Z,15.83
2019-04-06T00:44:16.841Z,13.03
2019-04-06T00:46:46.093Z,13.53
2019-04-06T00:49:15.274Z,14.13
2019-04-06T00:51:44.778Z,12.13
2019-04-06T00:54:14.049Z,13.90
2019-04-06T00:56:43.315Z,13.83
2019-04-06T00:59:12.348Z,13.23
2019-04-06T01:01:41.480Z,13.00
2019-04-06T01:04:10.571Z,12.90
2019-04-06T01:06:39.539Z,13.47
2019-04-06T01:09:10.259Z,11.33
2019-04-06T01:11:39.545Z,13.63
2019-04-06T01:14:08.889Z,12.90
2019-04-06T01:16:38.030Z,10.53
2019-04-06T01:19:07.440Z,12.37
2019-04-06T01:21:36.702Z,13.10
2019-04-06T01:24:06.020Z,11.23
2019-04-06T01:26:35.240Z,13.77
2019-04-06T01:29:04.551Z,12.80
2019-04-06T01:31:33.747Z,11.30
2019-04-06T01:34:02.928Z,10.67
2019-04-06T01:36:32.292Z,9.33
2019-04-06T01:39:01.588Z,9.20
2019-04-06T01:41:30.855Z,10.93
2019-04-06T01:43:59.931Z,13.33
2019-04-06T01:46:29.141Z,11.57
2019-04-06T01:48:58.442Z,10.33
2019-04-06T01:51:27.526Z,13.23
2019-04-06T01:53:56.630Z,12.70
2019-04-06T01:56:25.872Z,13.70
2019-04-06T01:58:54.933Z,14.17
2019-04-06T02:02:01.727Z,13.60
2019-04-06T02:04:30.977Z,11.60
2019-04-06T02:07:00.211Z,15.77
2019-04-06T02:09:29.355Z,15.23
2019-04-06T02:11:58.603Z,14.57
2019-04-06T02:14:28.202Z,15.23
2019-04-06T02:16:57.350Z,13.57
2019-04-06T02:19:26.438Z,13.53
2019-04-06T02:21:55.713Z,13.87
2019-04-06T02:24:25.160Z,13.70
2019-04-06T02:26:54.543Z,13.90
2019-04-06T02:29:23.689Z,12.70
2019-04-06T02:32:10.674Z,14.37
2019-04-06T02:34:57.709Z,14.97
2019-04-06T02:37:49.205Z,15.57
2019-04-06T02:40:39.155Z,15.57
2019-04-06T02:43:15.255Z,16.00
2019-04-06T02:45:44.476Z,16.97
2019-04-06T02:48:13.542Z,15.17
2019-04-06T02:50:42.885Z,17.03
2019-04-06T02:53:12.080Z,18.87
2019-04-06T02:55:41.364Z,17.80
2019-04-06T02:58:10.558Z,17.80
2019-04-06T03:00:39.743Z,19.83
2019-04-06T03:03:09.104Z,21.57
2019-04-06T03:05:38.445Z,21.60
2019-04-06T03:08:07.877Z,18.93
2019-04-06T03:10:36.929Z,18.47
2019-04-06T03:13:06.283Z,20.73
2019-04-06T03:15:35.630Z,19.73
2019-04-06T03:18:04.830Z,19.80
2019-04-06T03:20:34.069Z,18.40
2019-04-06T03:23:03.414Z,18.53
2019-04-06T03:25:32.604Z,20.00
2019-04-06T03:28:01.653Z,17.17
2019-04-06T03:30:31.263Z,17.00
2019-04-06T03:33:00.994Z,18.70
2019-04-06T03:35:30.963Z,17.63
2019-04-06T03:38:00.362Z,17.07
2019-04-06T03:40:29.587Z,17.13
2019-04-06T03:42:58.707Z,16.20
2019-04-06T03:45:27.987Z,17.03
2019-04-06T03:47:57.683Z,20.00
2019-04-06T03:50:26.859Z,20.83
2019-04-06T03:52:55.935Z,18.77
2019-04-06T03:55:24.910Z,17.03
2019-04-06T03:57:54.531Z,17.23
2019-04-06T04:00:23.791Z,18.27
2019-04-06T04:02:53.378Z,17.03
2019-04-06T04:05:22.930Z,16.90
2019-04-06T04:07:52.495Z,17.73
2019-04-06T04:10:36.259Z,16.70
2019-04-06T04:13:05.874Z,15.73
2019-04-06T04:15:35.126Z,19.33
2019-04-06T04:18:04.735Z,19.67
2019-04-06T04:20:34.079Z,16.93
2019-04-06T04:23:03.186Z,16.93
2019-04-06T04:25:32.682Z,18.90
2019-04-06T04:28:02.087Z,18.13
2019-04-06T04:30:33.915Z,14.50
2019-04-06T04:33:01.956Z,16.23
2019-04-06T04:35:31.545Z,16.90
2019-04-06T04:38:00.733Z,14.90
2019-04-06T04:40:30.067Z,16.13
2019-04-06T04:42:59.368Z,18.17
2019-04-06T04:45:28.499Z,17.07
2019-04-06T04:47:58.124Z,16.97
2019-04-06T04:50:27.379Z,17.40
2019-04-06T04:52:57.394Z,17.80
2019-04-06T04:55:26.577Z,18.30
2019-04-06T04:57:55.771Z,14.60
2019-04-06T05:00:25.111Z,16.17
2019-04-06T05:02:55.249Z,17.20
2019-04-06T05:05:24.399Z,17.57
2019-04-06T05:07:53.807Z,17.43
2019-04-06T05:10:23.565Z,16.67
2019-04-06T05:12:52.653Z,17.03
2019-04-06T05:15:30.799Z,15.70
2019-04-06T05:17:59.940Z,14.87
2019-04-06T05:20:29.141Z,16.80
2019-04-06T05:22:58.288Z,17.13
2019-04-06T05:25:27.565Z,17.10
2019-04-06T05:27:57.004Z,17.33
2019-04-06T05:30:26.151Z,17.27
2019-04-06T05:32:55.260Z,16.63
2019-04-06T05:35:24.458Z,17.87
2019-04-06T05:37:53.588Z,15.33
2019-04-06T05:40:23.052Z,17.90
2019-04-06T05:42:52.350Z,16.20
2019-04-06T05:45:21.554Z,17.17
2019-04-06T05:47:50.942Z,19.03
2019-04-06T05:50:20.837Z,16.57
2019-04-06T05:52:50.432Z,16.10
2019-04-06T05:55:19.572Z,17.03
2019-04-06T05:57:48.708Z,17.13
2019-04-06T06:00:17.887Z,17.17
2019-04-06T06:02:46.879Z,17.80
2019-04-06T06:05:16.083Z,19.13
2019-04-06T06:07:45.286Z,17.33
2019-04-06T06:10:14.372Z,22.47
2019-04-06T06:12:43.549Z,22.80
2019-04-06T06:15:13.085Z,20.87
2019-04-06T06:17:42.258Z,20.90
2019-04-06T06:20:11.578Z,24.57
2019-04-06T06:22:40.815Z,21.97
2019-04-06T06:25:10.181Z,21.87
2019-04-06T06:27:39.323Z,19.97
2019-04-06T06:30:09.157Z,19.60
2019-04-06T06:32:38.415Z,23.07
2019-04-06T06:35:07.771Z,24.03
2019-04-06T06:37:37.194Z,22.67
2019-04-06T06:40:06.778Z,23.33
2019-04-06T06:42:36.071Z,21.87
2019-04-06T06:45:05.736Z,21.63
2019-04-06T06:47:34.951Z,19.13
2019-04-06T06:50:04.522Z,18.77
2019-04-06T06:52:33.619Z,18.00
2019-04-06T06:55:04.836Z,19.73
2019-04-06T06:57:34.145Z,17.83
2019-04-06T07:00:03.712Z,19.70
2019-04-06T07:02:32.959Z,18.13
2019-04-06T07:05:03.557Z,18.67
2019-04-06T07:07:32.994Z,21.00
2019-04-06T07:10:05.686Z,21.73
2019-04-06T07:12:32.996Z,21.97
2019-04-06T07:15:02.271Z,20.00
2019-04-06T07:17:31.396Z,20.10
2019-04-06T07:20:00.799Z,20.30
2019-04-06T07:22:31.827Z,20.53
2019-04-06T07:25:20.275Z,20.83
2019-04-06T07:27:49.395Z,19.23
2019-04-06T07:30:18.811Z,20.80
2019-04-06T07:32:47.976Z,19.63
2019-04-06T07:35:17.123Z,18.97
2019-04-06T07:37:46.568Z,20.10
2019-04-06T07:40:19.094Z,20.63
2019-04-06T07:42:48.139Z,18.90
2019-04-06T07:45:17.406Z,19.20
2019-04-06T07:47:46.803Z,17.93
2019-04-06T07:50:19.392Z,19.83
2019-04-06T07:52:48.616Z,20.00
2019-04-06T07:55:17.874Z,20.07
2019-04-06T07:57:46.974Z,18.37
2019-04-06T08:00:16.486Z,19.03
2019-04-06T08:02:45.665Z,19.67
2019-04-06T08:05:15.114Z,19.13
2019-04-06T08:07:44.383Z,20.00
2019-04-06T08:10:15.323Z,20.23
2019-04-06T08:12:44.391Z,19.97
2019-04-06T08:15:13.608Z,20.00
2019-04-06T08:17:44.520Z,21.40
2019-04-06T08:20:13.898Z,22.00
2019-04-06T08:22:43.500Z,18.60
2019-04-06T08:25:32.531Z,16.80
2019-04-06T08:28:02.319Z,22.90
2019-04-06T08:30:31.937Z,21.47
2019-04-06T08:33:01.550Z,22.43
2019-04-06T08:35:30.890Z,21.87
2019-04-06T08:38:02.254Z,22.53
2019-04-06T08:40:34.341Z,23.33
2019-04-06T08:43:03.594Z,22.17
2019-04-06T08:45:32.997Z,18.97
2019-04-06T08:48:03.150Z,24.17
2019-04-06T08:50:40.247Z,23.23
2019-04-06T08:53:09.458Z,22.57
2019-04-06T08:55:39.052Z,23.47
2019-04-06T08:58:08.380Z,23.70
2019-04-06T09:00:38.035Z,23.10
2019-04-06T09:03:07.474Z,21.93
2019-04-06T09:05:40.200Z,22.57
2019-04-06T09:08:09.370Z,24.10
2019-04-06T09:10:57.728Z,24.73
2019-04-06T09:13:26.898Z,23.20
2019-04-06T09:15:56.114Z,22.87
2019-04-06T09:18:25.286Z,23.93
2019-04-06T09:20:56.151Z,23.47
2019-04-06T09:23:27.740Z,23.13
2019-04-06T09:25:57.410Z,21.60
2019-04-06T09:28:26.688Z,24.20
2019-04-06T09:30:55.819Z,23.30
2019-04-06T09:33:25.160Z,23.77
2019-04-06T09:35:54.795Z,23.50
2019-04-06T09:38:24.269Z,21.93
2019-04-06T09:40:53.988Z,29.73
2019-04-06T09:43:24.480Z,24.17
2019-04-06T09:46:18.187Z,24.37
2019-04-06T09:49:02.677Z,23.90
2019-04-06T09:51:51.487Z,23.37
2019-04-06T09:54:39.932Z,23.93
2019-04-06T09:57:43.701Z,25.90
2019-04-06T10:00:31.142Z,24.23
2019-04-06T10:03:19.116Z,23.53
2019-04-06T10:05:59.255Z,23.47
2019-04-06T10:08:38.688Z,24.50
2019-04-06T10:11:35.817Z,24.03
2019-04-06T10:14:18.321Z,25.63
2019-04-06T10:17:12.845Z,24.27
2019-04-06T10:19:57.403Z,24.97
2019-04-06T10:22:42.082Z,25.77
2019-04-06T10:25:23.848Z,25.63
2019-04-06T10:28:12.228Z,25.30
2019-04-06T10:31:00.563Z,25.27
2019-04-06T10:33:41.785Z,25.33
2019-04-06T10:36:23.848Z,26.17
2019-04-06T10:39:08.245Z,25.23
2019-04-06T10:42:02.227Z,25.53
2019-04-06T10:47:53.752Z,24.13
2019-04-06T10:50:40.989Z,24.90
2019-04-06T10:53:32.718Z,24.83
2019-04-06T10:56:16.315Z,24.63
2019-04-06T10:59:13.275Z,25.60
2019-04-06T11:02:00.373Z,25.77
2019-04-06T11:04:33.994Z,23.37
2019-04-06T11:07:24.327Z,24.60
2019-04-06T11:10:27.973Z,24.40
2019-04-06T11:13:25.022Z,25.90
2019-04-06T11:16:07.839Z,23.80
2019-04-06T11:18:57.264Z,24.37
2019-04-06T11:21:57.695Z,25.40
2019-04-06T11:24:52.064Z,25.20
2019-04-06T11:27:37.280Z,23.40
2019-04-06T11:30:29.083Z,24.40
2019-04-06T11:33:26.761Z,22.97
2019-04-06T11:36:04.396Z,24.87
2019-04-06T11:38:54.022Z,25.20
2019-04-06T11:41:48.096Z,25.40
2019-04-06T11:44:36.711Z,24.30
2019-04-06T11:47:20.860Z,23.80
2019-04-06T11:50:09.073Z,24.00
2019-04-06T11:52:57.205Z,22.73
2019-04-06T11:55:49.480Z,24.77
2019-04-06T11:58:29.312Z,24.80
2019-04-06T12:01:13.920Z,24.03
2019-04-06T12:04:12.681Z,23.03
2019-04-06T12:07:03.698Z,23.27
2019-04-06T12:09:44.654Z,24.13
2019-04-06T12:12:31.634Z,22.40
2019-04-06T12:15:09.826Z,21.27
2019-04-06T12:17:57.163Z,22.87
2019-04-06T12:20:34.174Z,21.07
2019-04-06T12:23:25.217Z,23.33
2019-04-06T12:26:09.454Z,21.70
2019-04-06T12:29:15.789Z,19.73
2019-04-06T12:31:53.123Z,20.13
2019-04-06T12:35:00.720Z,21.17
2019-04-06T12:37:58.391Z,17.03
2019-04-06T12:40:47.154Z,15.77
2019-04-06T12:43:37.521Z,14.33
2019-04-06T12:46:41.021Z,13.90
2019-04-06T12:49:47.258Z,15.20
2019-04-06T12:52:53.877Z,15.13
2019-04-06T12:55:32.282Z,16.53
2019-04-06T12:58:32.522Z,13.97
2019-04-06T13:01:29.279Z,13.13
2019-04-06T13:04:17.346Z,12.73
2019-04-06T13:07:05.663Z,12.07
2019-04-06T13:09:44.525Z,10.43
2019-04-06T13:12:34.539Z,11.10
2019-04-06T13:15:12.479Z,11.17
2019-04-06T13:17:53.903Z,12.40
2019-04-06T13:20:40.785Z,12.20
2019-04-06T13:23:33.895Z,12.73
2019-04-06T13:26:12.921Z,12.37
2019-04-06T13:28:56.853Z,10.77
2019-04-06T13:31:33.650Z,11.40
2019-04-06T13:34:17.780Z,11.60
2019-04-06T13:37:03.951Z,11.50
2019-04-06T13:39:55.031Z,10.50
2019-04-06T13:42:41.726Z,10.17
2019-04-06T13:45:32.711Z,10.77
2019-04-06T13:48:20.119Z,10.73
2019-04-06T13:51:05.387Z,10.83
2019-04-06T13:53:56.391Z,11.13
2019-04-06T13:56:47.679Z,11.57
2019-04-06T13:59:45.140Z,10.43
2019-04-06T14:02:31.583Z,10.70
2019-04-06T14:05:20.067Z,9.97
2019-04-06T14:08:14.393Z,9.77
2019-04-06T14:10:56.777Z,10.23
2019-04-06T14:13:43.110Z,9.30
2019-04-06T14:16:31.555Z,9.87
2019-04-06T14:19:12.834Z,10.93
2019-04-06T14:22:11.011Z,10.73
2019-04-06T14:25:03.742Z,10.83
2019-04-06T14:27:44.588Z,10.77
2019-04-06T14:30:32.995Z,9.77
2019-04-06T14:33:11.005Z,11.30
2019-04-06T14:36:09.632Z,10.67
2019-04-06T14:39:01.060Z,8.97
2019-04-06T14:41:58.729Z,8.90
2019-04-06T14:44:54.039Z,10.00
2019-04-06T14:47:48.195Z,11.60
2019-04-06T14:50:43.891Z,10.70
2019-04-06T14:53:30.751Z,9.40
2019-04-06T14:56:06.601Z,9.67
2019-04-06T14:58:47.294Z,11.83
2019-04-06T15:01:51.998Z,10.87
2019-04-06T15:04:40.330Z,11.10
2019-04-06T15:07:34.740Z,11.53
2019-04-06T15:10:16.290Z,11.60
2019-04-06T15:13:16.702Z,10.90
2019-04-06T15:16:05.310Z,10.20
2019-04-06T15:18:49.507Z,11.10
2019-04-06T15:21:41.230Z,11.73
2019-04-06T15:24:28.099Z,11.67
2019-04-06T15:27:25.391Z,9.63
2019-04-06T15:30:19.577Z,11.23
2019-04-06T15:33:05.696Z,10.67
2019-04-06T15:35:52.766Z,11.63
2019-04-06T15:38:34.078Z,10.30
2019-04-06T15:41:21.290Z,12.80
2019-04-06T15:44:08.551Z,12.00
2019-04-06T15:46:45.047Z,11.57
2019-04-06T15:49:25.181Z,12.53
2019-04-06T15:52:22.599Z,13.00
2019-04-06T15:55:10.791Z,12.70
2019-04-06T15:57:56.721Z,13.90
2019-04-06T16:00:43.946Z,13.27
2019-04-06T16:03:25.473Z,11.37
2019-04-06T16:06:09.969Z,14.23
2019-04-06T16:08:57.045Z,12.13
2019-04-06T16:11:45.204Z,12.27
2019-04-06T16:14:22.745Z,11.87
2019-04-06T16:16:59.232Z,13.03
2019-04-06T16:19:48.229Z,11.13
2019-04-06T16:22:36.387Z,10.03
2019-04-06T16:25:24.869Z,9.63
2019-04-06T16:28:11.188Z,12.70
2019-04-06T16:30:59.885Z,8.97
2019-04-06T16:33:47.239Z,10.20
2019-04-06T16:36:25.348Z,11.83
2019-04-06T16:39:15.695Z,9.77
2019-04-06T16:42:13.221Z,12.23
2019-04-06T16:45:01.599Z,9.90
2019-04-06T16:47:41.587Z,11.37
2019-04-06T16:50:40.986Z,13.47
2019-04-06T16:53:29.463Z,13.30
2019-04-06T16:56:24.804Z,10.97
2019-04-06T16:59:24.993Z,12.67
2019-04-06T17:02:24.711Z,9.70
2019-04-06T17:05:08.234Z,8.50
2019-04-06T17:07:48.900Z,10.23
2019-04-06T17:10:39.925Z,8.13
2019-04-06T17:13:18.267Z,9.60
2019-04-06T17:19:12.359Z,9.67
2019-04-06T17:21:50.006Z,8.13
2019-04-06T17:24:32.690Z,8.50
2019-04-06T17:27:32.906Z,8.70
2019-04-06T17:30:20.162Z,8.00
2019-04-06T17:33:06.300Z,7.87
2019-04-06T17:36:00.900Z,7.83
2019-04-06T17:39:04.407Z,9.17
2019-04-06T17:41:40.716Z,9.07
2019-04-06T17:44:34.176Z,8.10
2019-04-06T17:47:25.591Z,8.20
2019-04-06T17:50:04.155Z,6.80
2019-04-06T17:52:38.477Z,6.57
2019-04-06T17:55:25.836Z,5.63
2019-04-06T17:58:13.062Z,4.83
2019-04-06T18:01:00.469Z,5.03
2019-04-06T18:03:59.695Z,4.80
2019-04-06T18:06:48.107Z,5.40
2019-04-06T18:09:36.702Z,5.83
2019-04-06T18:12:31.743Z,5.70
2019-04-06T18:15:00.974Z,5.60
2019-04-06T18:17:30.185Z,5.80
2019-04-06T18:19:59.545Z,6.07
2019-04-06T18:22:28.725Z,8.23
2019-04-06T18:24:57.976Z,6.90
2019-04-06T18:27:27.460Z,8.17
2019-04-06T18:29:56.740Z,8.83
2019-04-06T18:32:38.384Z,6.80
2019-04-06T18:35:09.958Z,8.00
2019-04-06T18:37:51.351Z,7.73
2019-04-06T18:40:25.911Z,8.95
2019-04-06T18:42:55.159Z,7.90
2019-04-06T18:45:25.723Z,8.23
2019-04-06T18:47:55.758Z,8.77
2019-04-06T18:50:34.252Z,9.03
2019-04-06T18:52:56.621Z,9.93
2019-04-06T18:55:27.128Z,10.30
2019-04-06T18:58:08.260Z,9.60
2019-04-06T19:00:27.458Z,9.30
2019-04-06T19:03:12.076Z,10.63
2019-04-06T19:05:33.911Z,11.63
2019-04-06T19:08:05.214Z,10.60
2019-04-06T19:10:34.887Z,10.43
2019-04-06T19:13:05.380Z,13.30
2019-04-06T19:15:35.004Z,11.20
2019-04-06T19:18:04.367Z,11.97
2019-04-06T19:20:34.048Z,12.67
2019-04-06T19:23:03.867Z,14.10
2019-04-06T19:25:33.091Z,13.03
2019-04-06T19:28:05.699Z,13.30
2019-04-06T19:30:35.163Z,13.90
2019-04-06T19:33:04.580Z,11.70
2019-04-06T19:35:39.686Z,12.07
2019-04-06T19:38:11.887Z,15.45
2019-04-06T19:40:41.539Z,15.30
2019-04-06T19:43:10.816Z,11.73
2019-04-06T19:45:39.975Z,12.63
2019-04-06T19:48:09.684Z,12.93
2019-04-06T19:50:39.271Z,12.70
2019-04-06T19:53:08.836Z,12.70
2019-04-06T19:55:38.432Z,11.87
2019-04-06T19:58:13.670Z,11.70
2019-04-06T20:00:42.987Z,11.10
2019-04-06T20:03:12.408Z,12.93
2019-04-06T20:05:41.706Z,16.40
2019-04-06T20:08:11.472Z,18.93
2019-04-06T20:10:41.154Z,15.20
2019-04-06T20:13:14.575Z,12.60
2019-04-06T20:15:44.268Z,13.57
2019-04-06T20:18:16.116Z,18.10
2019-04-06T20:20:45.641Z,13.50
2019-04-06T20:23:14.950Z,12.87
2019-04-06T20:25:44.261Z,19.40
2019-04-06T20:28:14.599Z,15.77
2019-04-06T20:30:44.141Z,15.27
2019-04-06T20:33:13.938Z,15.60
2019-04-06T20:35:44.378Z,12.57
2019-04-06T20:38:19.558Z,14.23
2019-04-06T20:40:49.369Z,12.37
2019-04-06T20:43:18.707Z,13.03
2019-04-06T20:45:47.924Z,11.73
2019-04-06T20:48:17.002Z,12.00
2019-04-06T20:50:46.259Z,12.37
2019-04-06T20:53:15.746Z,12.10
2019-04-06T20:55:45.223Z,13.30
2019-04-06T20:58:15.773Z,13.57
2019-04-06T21:00:45.002Z,13.17
2019-04-06T21:03:15.129Z,13.17
2019-04-06T21:05:44.527Z,18.43
2019-04-06T21:08:14.397Z,12.77
2019-04-06T21:10:45.914Z,13.30
2019-04-06T21:13:15.558Z,14.03
2019-04-06T21:15:45.093Z,13.67
2019-04-06T21:18:14.646Z,12.87
2019-04-06T21:20:44.069Z,14.37
2019-04-06T21:23:13.878Z,12.20
2019-04-06T21:25:43.717Z,11.23
2019-04-06T21:28:13.247Z,11.70
2019-04-06T21:30:43.061Z,10.70
2019-04-06T21:33:14.622Z,11.20
2019-04-06T21:35:44.646Z,11.07
2019-04-06T21:38:13.923Z,11.50
2019-04-06T21:40:43.373Z,12.20
2019-04-06T21:43:12.708Z,12.17
2019-04-06T21:45:42.391Z,11.27
2019-04-06T21:48:12.150Z,10.13
2019-04-06T21:50:41.300Z,10.77
2019-04-06T21:53:10.642Z,11.47
2019-04-06T21:55:40.027Z,13.73
2019-04-06T21:58:09.755Z,12.17
2019-04-06T22:01:10.267Z,12.27
2019-04-06T22:03:39.676Z,11.97
2019-04-06T22:06:09.109Z,12.07
2019-04-06T22:08:38.503Z,10.70
2019-04-06T22:11:08.851Z,10.47
2019-04-06T22:13:38.222Z,10.30
2019-04-06T22:16:08.689Z,10.00
2019-04-06T22:18:38.016Z,9.63
2019-04-06T22:21:07.222Z,9.60
2019-04-06T22:23:42.349Z,8.83
2019-04-06T22:26:08.076Z,10.43
2019-04-06T22:28:37.607Z,9.90
2019-04-06T22:31:07.176Z,11.13
2019-04-06T22:33:36.483Z,13.47
2019-04-06T22:36:05.663Z,12.07
2019-04-06T22:38:34.882Z,10.73
2019-04-06T22:41:03.977Z,10.93
2019-04-06T22:43:36.372Z,12.20
2019-04-06T22:46:05.624Z,13.60
2019-04-06T22:48:34.876Z,12.43
2019-04-06T22:51:04.565Z,11.33
2019-04-06T22:53:33.980Z,10.87
2019-04-06T22:56:03.425Z,13.33
2019-04-06T22:58:32.688Z,13.43
2019-04-06T23:01:07.068Z,11.20
2019-04-06T23:04:01.671Z,11.13
2019-04-06T23:06:35.423Z,12.63
2019-04-06T23:09:06.978Z,12.03
2019-04-06T23:11:36.654Z,11.87
2019-04-06T23:14:06.422Z,12.70
2019-04-06T23:16:35.770Z,14.03
2019-04-06T23:19:05.119Z,12.07
2019-04-06T23:21:34.240Z,13.33
2019-04-06T23:24:04.749Z,12.67
2019-04-06T23:26:34.465Z,12.93
2019-04-06T23:29:03.802Z,11.13
2019-04-06T23:31:33.462Z,13.10
2019-04-06T23:34:03.382Z,13.30
2019-04-06T23:36:32.983Z,14.70
2019-04-06T23:39:02.417Z,13.03
2019-04-06T23:41:32.257Z,13.87
2019-04-06T23:44:01.569Z,16.60
2019-04-06T23:46:30.921Z,14.50
2019-04-06T23:49:02.284Z,16.90
2019-04-06T23:51:31.414Z,15.20
2019-04-06T23:54:00.860Z,13.50
2019-04-06T23:56:30.138Z,14.87
2019-04-06T23:58:59.476Z,14.83
